createdAt,value
2023-05-10T00:02:11.820Z,20.17
2023-05-10T00:05:12.684Z,19.86
2023-05-10T00:08:13.710Z,19.80
2023-05-10T00:11:14.704Z,20.35
2023-05-10T00:14:15.725Z,20.06
2023-05-10T00:17:16.675Z,20.21
2023-05-10T00:20:18.163Z,19.72
2023-05-10T00:23:18.673Z,19.89
2023-05-10T00:26:19.737Z,19.89
2023-05-10T00:29:22.675Z,19.67
2023-05-10T00:32:24.003Z,19.84
2023-05-10T00:35:24.679Z,20.20
2023-05-10T00:38:25.722Z,20.32
2023-05-10T00:41:26.656Z,20.18
2023-05-10T00:44:28.716Z,19.97
2023-05-10T00:47:29.720Z,19.82
2023-05-10T00:50:30.766Z,20.01
2023-05-10T00:53:31.671Z,20.08
2023-05-10T00:56:32.751Z,20.18
2023-05-10T00:59:33.657Z,19.87
2023-05-10T01:02:34.788Z,19.84
2023-05-10T01:05:35.700Z,20.12
2023-05-10T01:08:36.726Z,19.96
2023-05-10T01:11:37.687Z,19.97
2023-05-10T01:14:39.705Z,19.94
2023-05-10T01:17:40.709Z,19.91
2023-05-10T01:20:54.707Z,20.13
2023-05-10T01:23:55.684Z,19.93
2023-05-10T01:27:01.688Z,19.99
2023-05-10T01:30:22.333Z,19.94
2023-05-10T01:33:33.772Z,19.94
2023-05-10T01:36:45.678Z,20.32
2023-05-10T01:39:51.702Z,19.91
2023-05-10T01:42:57.882Z,20.03
2023-05-10T01:46:05.746Z,19.93
2023-05-10T01:49:08.694Z,20.06
2023-05-10T01:52:13.718Z,19.95
2023-05-10T01:55:19.697Z,19.92
2023-05-10T01:58:22.726Z,20.13
2023-05-10T02:01:24.656Z,19.79
2023-05-10T02:04:27.706Z,20.01
2023-05-10T02:07:28.675Z,19.94
2023-05-10T02:10:29.712Z,19.90
2023-05-10T02:13:31.726Z,19.61
2023-05-10T02:16:34.768Z,19.79
2023-05-10T02:19:36.656Z,19.86
2023-05-10T02:22:38.704Z,19.97
2023-05-10T02:25:39.688Z,19.94
2023-05-10T02:28:41.708Z,20.15
2023-05-10T02:31:42.658Z,20.25
2023-05-10T02:34:44.859Z,19.83
2023-05-10T02:37:45.657Z,19.95
2023-05-10T02:40:46.706Z,20.13
2023-05-10T02:43:47.655Z,20.34
2023-05-10T02:46:48.705Z,20.07
2023-05-10T02:49:49.664Z,19.77
2023-05-10T02:53:01.728Z,20.19
2023-05-10T02:56:05.667Z,19.88
2023-05-10T02:59:06.700Z,19.79
2023-05-10T03:02:07.679Z,19.99
2023-05-10T03:05:08.716Z,20.08
2023-05-10T03:08:11.678Z,20.10
2023-05-10T03:11:21.693Z,20.08
2023-05-10T03:14:31.652Z,19.94
2023-05-10T03:17:35.780Z,20.03
2023-05-10T03:20:40.701Z,20.34
2023-05-10T03:23:55.755Z,19.81
2023-05-10T03:26:57.697Z,20.26
2023-05-10T03:29:58.686Z,20.25
2023-05-10T03:33:01.734Z,20.51
2023-05-10T03:36:06.734Z,19.93
2023-05-10T03:39:07.670Z,20.12
2023-05-10T03:42:08.687Z,20.44
2023-05-10T03:45:09.654Z,20.45
2023-05-10T03:48:10.750Z,20.48
2023-05-10T03:51:11.621Z,20.08
2023-05-10T03:54:12.698Z,19.97
2023-05-10T03:57:13.669Z,19.83
2023-05-10T04:00:14.880Z,20.46
2023-05-10T04:03:18.772Z,19.39
2023-05-10T04:06:19.799Z,19.65
2023-05-10T04:09:20.656Z,19.69
2023-05-10T04:12:21.683Z,19.73
2023-05-10T04:15:22.658Z,20.12
2023-05-10T04:18:23.738Z,20.00
2023-05-10T04:21:27.632Z,20.16
2023-05-10T04:24:28.698Z,20.13
2023-05-10T04:27:29.688Z,20.21
2023-05-10T04:30:30.745Z,20.02
2023-05-10T04:33:31.635Z,20.01
2023-05-10T04:36:32.999Z,20.10
2023-05-10T04:39:33.673Z,19.97
2023-05-10T04:42:34.703Z,20.76
2023-05-10T04:45:35.661Z,20.58
2023-05-10T04:48:36.717Z,19.83
2023-05-10T04:51:37.645Z,20.92
2023-05-10T04:54:38.680Z,20.62
2023-05-10T04:57:39.662Z,21.01
2023-05-10T05:00:40.687Z,20.94
2023-05-10T05:03:41.752Z,20.41
2023-05-10T05:06:42.703Z,20.69
2023-05-10T05:09:43.645Z,21.11
2023-05-10T05:12:44.744Z,20.96
2023-05-10T05:15:45.658Z,21.00
2023-05-10T05:18:46.698Z,21.79
2023-05-10T05:21:47.650Z,18.42
2023-05-10T05:24:52.684Z,19.56
2023-05-10T05:27:53.630Z,20.19
2023-05-10T05:30:54.728Z,20.61
2023-05-10T05:33:55.651Z,20.51
2023-05-10T05:36:56.833Z,20.90
2023-05-10T05:39:57.646Z,20.40
2023-05-10T05:42:58.682Z,20.66
2023-05-10T05:45:59.692Z,20.43
2023-05-10T05:49:00.695Z,20.21
2023-05-10T05:52:01.629Z,20.51
2023-05-10T05:55:02.649Z,19.19
2023-05-10T05:58:03.630Z,18.39
2023-05-10T06:01:04.647Z,18.12
2023-05-10T06:04:05.706Z,18.95
2023-05-10T06:07:06.663Z,19.34
2023-05-10T06:10:07.643Z,19.28
2023-05-10T06:13:08.833Z,19.75
2023-05-10T06:16:09.648Z,19.63
2023-05-10T06:19:10.670Z,19.72
2023-05-10T06:22:11.646Z,20.06
2023-05-10T06:25:12.695Z,20.43
2023-05-10T06:28:13.785Z,20.12
2023-05-10T06:31:14.736Z,20.29
2023-05-10T06:34:15.602Z,20.41
2023-05-10T06:37:16.882Z,20.39
2023-05-10T06:40:17.660Z,20.49
2023-05-10T06:43:18.693Z,18.48
2023-05-10T06:46:19.725Z,19.76
2023-05-10T06:49:20.691Z,19.80
2023-05-10T06:52:21.645Z,20.16
2023-05-10T06:55:22.696Z,20.19
2023-05-10T06:58:23.644Z,20.40
2023-05-10T07:01:24.769Z,20.02
2023-05-10T07:04:25.694Z,18.12
2023-05-10T07:07:26.672Z,18.85
2023-05-10T07:10:27.634Z,17.32
2023-05-10T07:13:28.783Z,18.55
2023-05-10T07:16:29.687Z,18.41
2023-05-10T07:19:30.643Z,16.58
2023-05-10T07:22:31.630Z,17.32
2023-05-10T07:25:32.655Z,16.98
2023-05-10T07:28:33.627Z,16.65
2023-05-10T07:31:34.657Z,16.60
2023-05-10T07:34:35.642Z,16.09
2023-05-10T07:37:36.851Z,15.87
2023-05-10T07:40:37.639Z,16.69
2023-05-10T07:43:38.665Z,16.17
2023-05-10T07:46:39.676Z,17.28
2023-05-10T07:49:40.704Z,17.76
2023-05-10T07:52:41.593Z,17.18
2023-05-10T07:55:42.651Z,17.15
2023-05-10T07:58:43.660Z,17.69
2023-05-10T08:01:45.720Z,18.33
2023-05-10T08:04:46.708Z,17.38
2023-05-10T08:07:47.655Z,15.80
2023-05-10T08:10:48.595Z,15.04
2023-05-10T08:13:49.718Z,15.33
2023-05-10T08:16:50.624Z,14.40
2023-05-10T08:19:51.674Z,13.64
2023-05-10T08:22:52.600Z,15.48
2023-05-10T08:25:53.661Z,14.27
2023-05-10T08:28:54.592Z,15.02
2023-05-10T08:31:55.623Z,13.94
2023-05-10T08:34:56.596Z,15.03
2023-05-10T08:37:57.768Z,14.28
2023-05-10T08:41:02.608Z,14.24
2023-05-10T08:44:04.652Z,13.86
2023-05-10T08:47:07.824Z,13.27
2023-05-10T08:50:08.735Z,13.76
2023-05-10T08:53:11.701Z,14.13
2023-05-10T08:56:12.698Z,14.89
2023-05-10T08:59:13.623Z,13.79
2023-05-10T09:02:16.667Z,13.28
2023-05-10T09:05:18.940Z,15.38
2023-05-10T09:08:20.637Z,13.43
2023-05-10T09:11:21.626Z,13.74
2023-05-10T09:14:22.654Z,13.74
2023-05-10T09:17:24.680Z,13.63
2023-05-10T09:20:25.643Z,13.57
2023-05-10T09:23:26.584Z,14.44
2023-05-10T09:26:27.679Z,15.27
2023-05-10T09:29:28.818Z,16.32
2023-05-10T09:32:29.695Z,15.04
2023-05-10T09:35:31.592Z,15.08
2023-05-10T09:38:32.843Z,14.98
2023-05-10T09:41:33.592Z,14.78
2023-05-10T09:44:34.716Z,14.79
2023-05-10T09:47:35.631Z,15.29
2023-05-10T09:50:36.644Z,15.07
2023-05-10T09:53:37.599Z,14.60
2023-05-10T09:56:47.663Z,15.45
2023-05-10T09:59:48.609Z,15.54
2023-05-10T10:02:49.727Z,16.84
2023-05-10T10:05:50.607Z,16.65
2023-05-10T10:08:51.632Z,16.85
2023-05-10T10:11:52.639Z,16.76
2023-05-10T10:14:53.668Z,16.38
2023-05-10T10:17:54.659Z,16.21
2023-05-10T10:20:55.632Z,16.41
2023-05-10T10:23:56.619Z,17.45
2023-05-10T10:26:58.615Z,17.01
2023-05-10T10:30:06.598Z,14.91
2023-05-10T10:33:28.752Z,15.57
2023-05-10T10:36:29.641Z,17.00
2023-05-10T10:39:30.922Z,16.22
2023-05-10T10:42:51.605Z,16.89
2023-05-10T10:45:53.693Z,17.05
2023-05-10T10:49:04.679Z,16.10
2023-05-10T10:52:28.646Z,16.40
2023-05-10T10:55:32.598Z,17.01
2023-05-10T10:58:53.689Z,16.70
2023-05-10T11:01:55.582Z,16.65
2023-05-10T11:04:57.634Z,17.30
2023-05-10T11:08:11.580Z,17.00
2023-05-10T11:11:17.650Z,17.34
2023-05-10T11:14:19.555Z,16.98
2023-05-10T11:17:40.668Z,17.47
2023-05-10T11:20:54.553Z,16.27
2023-05-10T11:23:58.678Z,15.36
2023-05-10T11:26:59.573Z,15.96
2023-05-10T11:30:00.604Z,16.77
2023-05-10T11:33:01.620Z,17.20
2023-05-10T11:36:02.669Z,15.96
2023-05-10T11:39:03.575Z,17.18
2023-05-10T11:42:04.973Z,16.85
2023-05-10T11:45:05.618Z,16.16
2023-05-10T11:48:06.754Z,16.29
2023-05-10T11:51:07.586Z,16.35
2023-05-10T11:54:10.771Z,17.45
2023-05-10T11:57:11.581Z,17.70
2023-05-10T12:00:12.654Z,17.42
2023-05-10T12:03:14.723Z,17.58
2023-05-10T12:06:17.613Z,17.76
2023-05-10T12:09:35.389Z,17.57
2023-05-10T12:12:36.608Z,18.27
2023-05-10T12:15:38.597Z,17.87
2023-05-10T12:18:39.673Z,18.10
2023-05-10T12:21:42.616Z,17.98
2023-05-10T12:24:43.647Z,17.99
2023-05-10T12:27:46.617Z,18.09
2023-05-10T12:30:47.650Z,18.08
2023-05-10T12:33:52.625Z,18.31
2023-05-10T12:36:53.610Z,18.57
2023-05-10T12:39:55.582Z,18.17
2023-05-10T12:42:56.847Z,18.55
2023-05-10T12:45:57.619Z,18.36
2023-05-10T12:49:09.020Z,18.05
2023-05-10T12:52:10.620Z,18.49
2023-05-10T12:55:11.645Z,18.53
2023-05-10T12:58:17.963Z,18.43
2023-05-10T13:01:21.726Z,18.30
2023-05-10T13:04:22.682Z,17.98
2023-05-10T13:07:23.628Z,18.19
2023-05-10T13:10:24.604Z,17.70
2023-05-10T13:13:25.622Z,18.35
2023-05-10T13:16:26.574Z,18.32
2023-05-10T13:19:27.633Z,18.36
2023-05-10T13:22:39.182Z,18.14
2023-05-10T13:25:41.603Z,18.16
2023-05-10T13:28:42.555Z,18.21
2023-05-10T13:31:43.660Z,18.05
2023-05-10T13:34:44.555Z,18.15
2023-05-10T13:37:45.610Z,17.93
2023-05-10T13:40:46.575Z,17.96
2023-05-10T13:43:47.775Z,18.21
2023-05-10T13:46:48.661Z,18.31
2023-05-10T13:49:49.605Z,18.31
2023-05-10T13:52:51.566Z,18.49
2023-05-10T13:55:52.594Z,18.35
2023-05-10T13:58:53.566Z,18.45
2023-05-10T14:01:54.647Z,18.01
2023-05-10T14:04:55.568Z,18.21
2023-05-10T14:07:56.596Z,18.39
2023-05-10T14:10:58.573Z,18.43
2023-05-10T14:13:59.602Z,18.36
2023-05-10T14:17:00.524Z,18.62
2023-05-10T14:20:01.625Z,18.65
2023-05-10T14:23:02.560Z,18.85
2023-05-10T14:26:03.750Z,18.38
2023-05-10T14:29:04.560Z,18.72
2023-05-10T14:32:05.661Z,18.45
2023-05-10T14:35:07.733Z,18.49
2023-05-10T14:38:08.597Z,18.19
2023-05-10T14:41:11.718Z,18.14
2023-05-10T14:44:12.727Z,18.37
2023-05-10T14:47:13.552Z,18.25
2023-05-10T14:50:21.705Z,18.28
2023-05-10T14:53:32.550Z,18.49
2023-05-10T14:56:35.614Z,18.62
2023-05-10T14:59:36.560Z,18.67
2023-05-10T15:02:37.630Z,18.41
2023-05-10T15:05:38.557Z,18.47
2023-05-10T15:08:39.576Z,18.41
2023-05-10T15:11:40.553Z,18.31
2023-05-10T15:14:41.579Z,18.63
2023-05-10T15:17:42.601Z,18.46
2023-05-10T15:20:43.586Z,18.47
2023-05-10T15:23:44.557Z,18.81
2023-05-10T15:26:45.585Z,18.61
2023-05-10T15:29:46.570Z,18.93
2023-05-10T15:32:47.642Z,19.05
2023-05-10T15:35:48.570Z,18.98
2023-05-10T15:38:49.589Z,18.92
2023-05-10T15:41:50.531Z,18.91
2023-05-10T15:44:52.730Z,19.31
2023-05-10T15:47:53.654Z,19.08
2023-05-10T15:50:54.650Z,19.13
2023-05-10T15:54:06.305Z,19.06
2023-05-10T15:57:08.638Z,19.11
2023-05-10T16:00:11.638Z,19.01
2023-05-10T16:03:12.707Z,19.26
2023-05-10T16:06:13.626Z,19.11
2023-05-10T16:09:14.649Z,19.32
2023-05-10T16:12:15.641Z,19.42
2023-05-10T16:15:16.955Z,19.13
2023-05-10T16:18:17.708Z,18.98
2023-05-10T16:21:18.649Z,19.22
2023-05-10T16:24:19.598Z,19.26
2023-05-10T16:27:20.692Z,19.40
2023-05-10T16:30:23.607Z,19.13
2023-05-10T16:33:24.623Z,19.31
2023-05-10T16:36:25.607Z,19.21
2023-05-10T16:39:26.711Z,19.48
2023-05-10T16:42:27.621Z,19.39
2023-05-10T16:45:28.948Z,19.21
2023-05-10T16:48:29.616Z,19.16
2023-05-10T16:51:30.781Z,19.26
2023-05-10T16:54:31.606Z,19.43
2023-05-10T16:57:32.638Z,19.31
2023-05-10T17:00:33.618Z,19.29
2023-05-10T17:03:34.768Z,19.51
2023-05-10T17:06:35.611Z,19.69
2023-05-10T17:09:36.630Z,19.67
2023-05-10T17:12:37.588Z,19.13
2023-05-10T17:15:38.752Z,18.96
2023-05-10T17:18:39.629Z,18.94
2023-05-10T17:21:40.673Z,18.95
2023-05-10T17:24:41.600Z,19.33
2023-05-10T17:27:42.667Z,19.31
2023-05-10T17:30:43.628Z,19.42
2023-05-10T17:33:44.739Z,19.63
2023-05-10T17:36:45.619Z,19.69
2023-05-10T17:39:47.654Z,19.48
2023-05-10T17:42:48.593Z,19.32
2023-05-10T17:45:50.725Z,19.39
2023-05-10T17:48:51.606Z,19.67
2023-05-10T17:51:54.644Z,19.40
2023-05-10T17:54:55.633Z,19.39
2023-05-10T17:57:56.602Z,19.52
2023-05-10T18:00:57.669Z,19.60
2023-05-10T18:03:58.653Z,19.83
2023-05-10T18:07:01.901Z,19.51
2023-05-10T18:10:02.626Z,19.61
2023-05-10T18:13:05.838Z,19.78
2023-05-10T18:16:07.634Z,19.46
2023-05-10T18:19:08.744Z,19.70
2023-05-10T18:22:10.829Z,19.68
2023-05-10T18:25:11.586Z,19.75
2023-05-10T18:28:12.639Z,19.89
2023-05-10T18:31:13.727Z,19.75
2023-05-10T18:34:14.652Z,19.51
2023-05-10T18:37:16.558Z,19.83
2023-05-10T18:40:19.677Z,19.99
2023-05-10T18:43:20.562Z,19.85
2023-05-10T18:46:21.878Z,19.66
2023-05-10T18:49:22.619Z,19.81
2023-05-10T18:52:23.638Z,19.79
2023-05-10T18:55:24.692Z,19.58
2023-05-10T18:58:27.020Z,19.83
2023-05-10T19:01:27.610Z,19.72
2023-05-10T19:04:29.177Z,19.68
2023-05-10T19:07:30.598Z,19.82
2023-05-10T19:10:31.654Z,19.77
2023-05-10T19:13:34.701Z,19.74
2023-05-10T19:16:36.897Z,19.92
2023-05-10T19:19:37.744Z,19.94
2023-05-10T19:22:54.280Z,20.20
2023-05-10T19:26:00.311Z,19.83
2023-05-10T19:29:04.025Z,19.80
2023-05-10T19:32:04.586Z,19.96
2023-05-10T19:35:05.561Z,19.85
2023-05-10T19:38:06.616Z,20.07
2023-05-10T19:41:10.587Z,19.93
2023-05-10T19:44:11.576Z,19.78
2023-05-10T19:47:12.850Z,19.99
2023-05-10T19:50:13.558Z,20.11
2023-05-10T19:53:14.553Z,19.97
2023-05-10T19:56:18.528Z,19.81
2023-05-10T19:59:19.528Z,19.80
2023-05-10T20:02:20.509Z,19.89
2023-05-10T20:05:21.544Z,19.72
2023-05-10T20:08:22.508Z,19.83
2023-05-10T20:11:23.563Z,19.72
2023-05-10T20:14:24.511Z,19.80
2023-05-10T20:17:25.622Z,20.23
2023-05-10T20:20:27.491Z,19.90
2023-05-10T20:23:28.567Z,20.21
2023-05-10T20:26:29.508Z,19.71
2023-05-10T20:29:30.576Z,19.95
2023-05-10T20:32:31.527Z,19.75
2023-05-10T20:35:32.550Z,19.91
2023-05-10T20:38:33.523Z,19.73
2023-05-10T20:41:34.545Z,20.20
2023-05-10T20:44:35.509Z,20.02
2023-05-10T20:47:36.742Z,19.96
2023-05-10T20:50:37.516Z,19.94
2023-05-10T20:53:38.539Z,19.94
2023-05-10T20:56:40.539Z,20.00
2023-05-10T20:59:41.566Z,19.88
2023-05-10T21:02:42.513Z,20.17
2023-05-10T21:05:43.525Z,20.37
2023-05-10T21:08:44.526Z,19.88
2023-05-10T21:11:46.581Z,20.14
2023-05-10T21:14:47.520Z,19.67
2023-05-10T21:17:48.630Z,20.04
2023-05-10T21:20:49.524Z,20.08
2023-05-10T21:23:50.548Z,19.92
2023-05-10T21:26:51.530Z,20.34
2023-05-10T21:29:52.565Z,19.90
2023-05-10T21:32:53.529Z,19.93
2023-05-10T21:35:54.555Z,20.02
2023-05-10T21:38:56.479Z,20.06
2023-05-10T21:41:57.530Z,19.93
2023-05-10T21:44:58.494Z,20.02
2023-05-10T21:47:59.729Z,20.23
2023-05-10T21:51:00.487Z,20.18
2023-05-10T21:54:01.549Z,20.09
2023-05-10T21:57:02.474Z,19.92
2023-05-10T22:00:03.562Z,19.78
2023-05-10T22:03:05.612Z,20.03
2023-05-10T22:06:06.546Z,19.89
2023-05-10T22:09:07.470Z,19.88
2023-05-10T22:12:08.522Z,19.93
2023-05-10T22:15:10.751Z,20.17
2023-05-10T22:18:11.792Z,20.05
2023-05-10T22:21:12.518Z,19.85
2023-05-10T22:24:13.523Z,19.89
2023-05-10T22:27:14.486Z,20.14
2023-05-10T22:30:15.682Z,19.68
2023-05-10T22:33:16.506Z,19.82
2023-05-10T22:36:17.537Z,19.83
2023-05-10T22:39:18.487Z,20.03
2023-05-10T22:42:19.598Z,19.83
2023-05-10T22:45:20.508Z,19.83
2023-05-10T22:48:21.578Z,19.60
2023-05-10T22:51:22.490Z,19.75
2023-05-10T22:54:23.532Z,20.22
2023-05-10T22:57:24.529Z,20.30
2023-05-10T23:00:25.543Z,19.92
2023-05-10T23:03:26.488Z,19.96
2023-05-10T23:06:27.515Z,19.74
2023-05-10T23:09:28.472Z,19.71
2023-05-10T23:12:29.507Z,19.61
2023-05-10T23:15:30.479Z,19.81
2023-05-10T23:18:31.571Z,19.63
2023-05-10T23:21:32.448Z,20.00
2023-05-10T23:24:33.528Z,19.94
2023-05-10T23:27:34.495Z,19.77
2023-05-10T23:30:35.531Z,19.87
2023-05-10T23:33:36.475Z,20.00
2023-05-10T23:36:38.508Z,19.77
2023-05-10T23:39:39.492Z,19.67
2023-05-10T23:42:40.516Z,20.00
2023-05-10T23:45:41.574Z,19.96
2023-05-10T23:48:42.632Z,20.08
2023-05-10T23:51:43.476Z,20.04
2023-05-10T23:54:45.953Z,19.78
2023-05-10T23:57:46.522Z,20.07
